• Join FlightAware (Why Join?)
  • Login
  • US Flag 
09:18PM EST


 

Airport Tracker/Info


-or-


 

Live Flight TrackerFlight Track Log ✈ EJA727 ✈ 26-Jun-2013 ✈ KISP - KARR

Flight Track Log - Related Links

Times and Time Zones

All times are in EDT time to prevent confusion due to time zone crossing. See the EJA727 flight status page for this flight to view local times or setup timezone preferences in your user account.

Time Position Orientation Groundspeed Altitude Reporting Facility
EDT Latitude Longitude Course Direction KTS MPH feet Rate Location/Type
02:38PM 40.8000 -73.1833 288° West 195 224 3,600  Level New York TRACON
02:39PM 40.8167 -73.2500 288° West 197 227 7,600 3,600 Climbing New York TRACON
02:40PM 40.8500 -73.3167 303° West 259 298 10,800 2,880 Climbing New York TRACON
02:41PM 40.9167 -73.4167 303° West 325 374 13,700 2,700 Climbing New York TRACON
02:42PM 40.9667 -73.5000 308° West 337 388 16,200 1,680 Climbing New York TRACON
02:43PM 41.0000 -73.6333 288° West 379 436 17,000 360 Climbing New York TRACON
02:44PM 41.0167 -73.7667 279° West 385 443 17,000  Level New York TRACON
02:46PM 41.0467 -74.0011 280° West 415 478 17,000  Level New York Center
02:47PM 41.0642 -74.1203 281° West 385 443 17,000  Level New York Center
02:48PM 41.0806 -74.2669 278° West 375 432 17,000  Level New York Center
02:49PM 41.0978 -74.3889 281° West 370 426 17,000  Level New York Center
02:50PM 41.1161 -74.5386 279° West 375 432 17,000  Level New York Center
02:51PM 41.1331 -74.6581 281° West 369 425 17,000 360 Level New York Center
02:52PM 41.1806 -74.7958 295° West 369 425 17,800 1,380 Climbing New York Center
02:53PM 41.2306 -74.9147 299° West 374 430 19,900 2,040 Climbing New York Center
02:54PM 41.2883 -75.0425 301° West 387 445 21,900 2,160 Climbing New York Center
02:55PM 41.3422 -75.1703 299° West 392 451 24,200 2,160 Climbing New York Center
02:56PM 41.3978 -75.2983 300° West 399 459 26,200 1,680 Climbing New York Center
02:57PM 41.4531 -75.4294 299° West 404 465 27,700 1,260 Climbing New York Center
02:58PM 41.5014 -75.5711 295° West 414 476 28,800 1,080 Climbing New York Center
02:59PM 41.5453 -75.7186 292° West 425 489 29,900 1,080 Climbing New York Center
03:00PM 41.5869 -75.8686 290° West 431 496 31,000 1,140 Climbing New York Center
03:01PM 41.6394 -76.0475 291° West 431 496 32,500 1,320 Climbing New York Center
03:02PM 41.6972 -76.2611 290° West 416 479 34,600 1,260 Climbing Cleveland Center
03:03PM 41.7381 -76.4058 291° West 416 479 35,800 1,260 Climbing Cleveland Center
03:04PM 41.7786 -76.5508 291° West 421 484 37,200 1,080 Climbing Cleveland Center
03:05PM 41.8169 -76.6933 290° West 421 484 38,000 360 Climbing Cleveland Center
03:06PM 41.8575 -76.8442 290° West 421 484 38,000  Level Cleveland Center
03:07PM 41.8997 -76.9897 291° West 421 484 38,000  Level Cleveland Center
03:08PM 41.9378 -77.1411 289° West 421 484 38,000 300 Level Cleveland Center
03:09PM 41.9794 -77.2897 291° West 421 484 38,600 780 Climbing Cleveland Center
03:10PM 42.0192 -77.4386 290° West 421 484 39,600 660 Climbing Cleveland Center
03:11PM 42.0564 -77.5822 289° West 421 484 40,000 180 Climbing Cleveland Center
03:12PM 42.0978 -77.7314 291° West 421 484 40,000  Level Cleveland Center
03:13PM 42.1367 -77.8839 289° West 421 484 40,000  Level Cleveland Center
03:14PM 42.1756 -78.0306 290° West 421 484 40,000  Level Cleveland Center
03:15PM 42.2142 -78.1833 289° West 421 484 40,000  Level Cleveland Center
03:16PM 42.2528 -78.3333 289° West 421 484 40,000  Level Cleveland Center
03:17PM 42.2911 -78.4808 289° West 421 484 40,000  Level Cleveland Center
03:18PM 42.3311 -78.6311 290° West 421 484 40,000  Level Cleveland Center
03:19PM 42.3692 -78.7844 289° West 421 484 40,000  Level Cleveland Center
03:20PM 42.4067 -78.9325 289° West 421 484 40,000  Level Cleveland Center
03:21PM 42.4442 -79.0864 288° West 421 484 40,000  Level Cleveland Center
03:22PM 42.4836 -79.2403 289° West 421 484 40,000  Level Cleveland Center
03:23PM 42.4958 -79.3978 276° West 421 484 40,000  Level Cleveland Center
03:24PM 42.5081 -79.5750 275° West 426 490 40,000  Level Cleveland Center
03:25PM 42.5133 -79.7353 273° West 426 490 40,000  Level Cleveland Center
03:26PM 42.5250 -79.8958 276° West 426 490 40,000  Level Cleveland Center
03:27PM 42.5278 -80.0478 271° West 437 503 40,000  Level Cleveland Center
03:28PM 42.5347 -80.2083 273° West 445 512 40,000  Level Cleveland Center
03:29PM 42.5392 -80.3719 272° West 437 503 40,000  Level Cleveland Center
03:30PM 42.5478 -80.5408 274° West 437 503 40,000  Level Cleveland Center
03:31PM 42.5539 -80.7044 273° West 442 509 40,000  Level Cleveland Center
03:32PM 42.5600 -80.8678 273° West 442 509 40,000  Level Cleveland Center
03:33PM 42.5656 -81.0342 273° West 442 509 40,000  Level Cleveland Center
03:34PM 42.5731 -81.2147 273° West 442 509 40,000  Level Cleveland Center
03:35PM 42.5783 -81.3839 272° West 448 516 40,000  Level Cleveland Center
03:37PM 42.5992 -81.5641 269° West  Level FlightAware Approximate
03:37PM 42.6194 -81.7117 269° West 446 513 40,000  Level Cleveland Center
03:38PM 42.6156 -81.8781 268° West 446 513 40,000  Level Cleveland Center
03:39PM 42.6117 -82.0133 268° West 441 507 40,000  Level Cleveland Center
03:40PM 42.6092 -82.2108 269° West 441 507 40,000  Level Cleveland Center
03:41PM 42.6067 -82.3772 269° West 441 507 40,000  Level Cleveland Center
03:42PM 42.6019 -82.5464 268° West 441 507 40,000  Level Cleveland Center
03:43PM 42.5989 -82.7183 269° West 446 513 40,000  Level Cleveland Center
03:44PM 42.5933 -82.8875 268° West 446 513 40,000 -480 Level Cleveland Center
03:45PM 42.5897 -83.0622 268° West 458 527 39,100 -1,500 Descending Cleveland Center
03:46PM 42.5861 -83.2342 268° West 463 533 37,100 -2,040 Descending Cleveland Center
03:47PM 42.5817 -83.4117 268° West 468 539 35,100 -1,560 Descending Cleveland Center
03:48PM 42.5731 -83.5917 266° West 473 544 34,000 -600 Descending Cleveland Center
03:49PM 42.5681 -83.7719 268° West 478 550 34,000 -600 Level Cleveland Center
03:50PM 42.5633 -83.9464 268° West 478 550 32,800 -1,560 Descending Cleveland Center
03:51PM 42.5558 -84.1236 267° West 478 550 30,900 -1,440 Descending Cleveland Center
03:52PM 42.5481 -84.3008 267° West 473 544 30,000 -600 Descending Cleveland Center
03:53PM 42.5456 -84.4097 268° West 472 543 30,000  Level Chicago Center
03:54PM 42.5383 -84.5900 267° West 476 548 30,000  Level Chicago Center
03:55PM 42.5303 -84.7719 267° West 482 555 30,000  Level Chicago Center
03:56PM 42.5228 -84.9544 267° West 483 556 30,000  Level Chicago Center
03:57PM 42.5150 -85.1364 267° West 484 557 30,000 -1,020 Level Chicago Center
03:58PM 42.5061 -85.3197 266° West 487 560 28,000 -2,160 Descending Chicago Center
03:59PM 42.4958 -85.5425 266° West 493 567 25,600 -2,220 Descending Chicago Center
04:00PM 42.4875 -85.7178 266° West 471 542 23,500 -1,980 Descending Chicago Center
04:01PM 42.4775 -85.8833 265° West 446 513 21,600 -1,740 Descending Chicago Center
04:02PM 42.4703 -86.0356 266° West 410 472 20,000 -1,560 Descending Chicago Center
04:03PM 42.4603 -86.1906 265° West 410 472 18,400 -1,560 Descending Chicago Center
04:04PM 42.4528 -86.3392 266° West 397 457 16,800 -1,680 Descending Chicago Center
04:05PM 42.4458 -86.4783 266° West 377 434 15,000 -2,040 Descending Chicago Center
04:06PM 42.4356 -86.6467 265° West 374 430 12,700 -2,040 Descending Chicago Center
04:07PM 42.4306 -86.7853 267° West 371 427 10,800 -1,500 Descending Chicago Center
04:08PM 42.4228 -86.9172 265° West 360 414 9,700 -1,500 Descending Chicago Center
04:09PM 42.4167 -87.0272 266° West 312 359 7,800 -1,860 Descending Chicago Center
04:11PM 42.4075 -87.1350 263° West 295 339 5,900 -1,800 Descending Chicago Center
04:12PM 42.4017 -87.2389 266° West 282 325 4,100 -960 Descending Chicago Center
04:13PM 42.3914 -87.3594 263° West 273 314 4,000 -60 Descending Chicago Center
04:14PM 42.3650 -87.4414 246° West 263 303 4,000  Level Chicago Center
04:15PM 42.3367 -87.5350 248° West 255 293 4,000  Level Chicago Center
04:16PM 42.3111 -87.6217 248° West 253 291 4,000  Level Chicago Center
04:17PM 42.2900 -87.7089 252° West 251 289 4,000 -420 Level Chicago Center
04:18PM 42.2833 -87.8194 265° West 251 289 3,200 -540 Descending Chicago Center
04:19PM 42.2772 -87.8956 264° West 235 270 2,900 -180 Descending Chicago Center
04:20PM 42.2536 -87.9647 245° Southwest 215 247 2,900  Level Chicago Center
04:21PM 42.2328 -88.0344 248° West 206 237 2,900  Level Chicago Center
04:22PM 42.1997 -88.0942 233° Southwest 208 239 2,900  Level Chicago Center
04:23PM 42.1519 -88.1586 225° Southwest 206 237 2,900  Level Chicago Center
04:24PM 42.1111 -88.2111 224° Southwest 205 236 2,900  Level Chicago Center
04:25PM 42.0692 -88.2644 223° Southwest 206 237 2,900  Level Chicago Center
04:26PM 42.0300 -88.3153 224° Southwest 204 235 2,900  Level Chicago Center
04:27PM 41.9692 -88.3472 201° Southwest 209 241 2,900  Level Chicago Center
04:28PM 41.9106 -88.3531 184° South 212 244 2,900 -300 Level Chicago Center
04:29PM 41.8542 -88.3558 182° South 209 241 2,400 -420 Descending Chicago Center
04:30PM 41.8014 -88.3619 185° South 201 231 2,100 -420 Descending Chicago Center
04:31PM 41.7706 -88.4017 224° Southwest 175 201 1,600 -660 Descending Chicago Center
04:32PM 41.7694 -88.4603 269° West 143 165 800 -780 Descending Chicago Center
04:34PM 41.7667 -88.4667 228° Southwest  Level FlightAware Approximate